createdAt,value
2017-12-14T00:01:08.422Z,3.13
2017-12-14T00:03:42.960Z,3.18
2017-12-14T00:06:11.984Z,3.37
2017-12-14T00:11:17.195Z,3.25
2017-12-14T00:13:53.934Z,2.98
2017-12-14T00:16:22.962Z,2.78
2017-12-14T00:18:53.963Z,2.76
2017-12-14T00:21:23.011Z,2.71
2017-12-14T00:23:52.061Z,2.75
2017-12-14T00:26:21.089Z,2.65
2017-12-14T00:28:51.082Z,2.63
2017-12-14T00:31:20.155Z,2.64
2017-12-14T00:33:49.184Z,2.59
2017-12-14T00:36:19.106Z,2.67
2017-12-14T00:38:48.154Z,2.54
2017-12-14T00:41:17.194Z,2.43
2017-12-14T00:43:46.221Z,2.46
2017-12-14T00:46:15.268Z,2.40
2017-12-14T00:48:47.681Z,2.38
2017-12-14T00:51:16.712Z,2.41
2017-12-14T00:54:03.248Z,2.30
2017-12-14T00:56:45.233Z,2.25
2017-12-14T00:59:14.281Z,2.25
2017-12-14T01:01:51.028Z,2.21
2017-12-14T01:04:20.059Z,2.19
2017-12-14T01:09:25.329Z,2.32
2017-12-14T01:14:45.941Z,2.67
2017-12-14T01:17:14.992Z,2.89
2017-12-14T01:22:19.361Z,3.09
2017-12-14T01:24:48.422Z,3.16
2017-12-14T01:27:17.441Z,3.34
2017-12-14T01:29:46.485Z,3.56
2017-12-14T01:32:15.505Z,3.83
2017-12-14T01:34:51.678Z,3.92
2017-12-14T01:37:20.716Z,4.23
2017-12-14T01:39:53.516Z,4.32
2017-12-14T01:42:22.543Z,4.39
2017-12-14T01:45:01.260Z,4.40
2017-12-14T01:47:41.362Z,4.40
2017-12-14T01:50:10.502Z,4.35
2017-12-14T01:52:39.545Z,4.31
2017-12-14T01:55:08.574Z,4.31
2017-12-14T01:57:37.597Z,4.19
2017-12-14T02:00:06.628Z,4.15
2017-12-14T02:02:49.064Z,4.15
2017-12-14T02:05:18.094Z,4.02
2017-12-14T02:07:48.166Z,3.94
2017-12-14T02:10:17.186Z,3.85
2017-12-14T02:12:46.282Z,3.79
2017-12-14T02:15:15.382Z,3.79
2017-12-14T02:17:44.852Z,3.75
2017-12-14T02:20:13.925Z,3.80
2017-12-14T02:22:46.069Z,4.00
2017-12-14T02:25:15.250Z,4.15
2017-12-14T02:27:44.279Z,4.15
2017-12-14T02:30:13.454Z,4.29
2017-12-14T02:32:42.616Z,4.49
2017-12-14T02:35:11.638Z,4.54
2017-12-14T02:37:40.670Z,4.65
2017-12-14T02:40:09.746Z,4.68
2017-12-14T02:42:42.413Z,4.79
2017-12-14T02:45:11.454Z,5.20
2017-12-14T02:47:44.099Z,5.61
2017-12-14T02:50:13.176Z,5.75
2017-12-14T02:52:42.198Z,5.94
2017-12-14T02:55:11.234Z,5.98
2017-12-14T02:57:40.269Z,6.14
2017-12-14T03:00:09.320Z,6.20
2017-12-14T03:02:42.900Z,6.23
2017-12-14T03:05:11.913Z,6.32
2017-12-14T03:07:40.979Z,6.42
2017-12-14T03:10:10.050Z,6.56
2017-12-14T03:12:39.115Z,6.59
2017-12-14T03:15:08.141Z,6.65
2017-12-14T03:17:37.178Z,6.62
2017-12-14T03:20:06.225Z,6.64
2017-12-14T03:22:43.658Z,6.58
2017-12-14T03:25:12.694Z,6.49
2017-12-14T03:27:41.721Z,6.36
2017-12-14T03:30:10.863Z,6.23
2017-12-14T03:32:39.889Z,6.15
2017-12-14T03:35:08.923Z,6.19
2017-12-14T03:37:38.878Z,6.08
2017-12-14T03:40:07.901Z,6.05
2017-12-14T03:42:40.257Z,5.95
2017-12-14T03:45:09.281Z,5.85
2017-12-14T03:47:39.285Z,5.75
2017-12-14T03:50:09.031Z,5.90
2017-12-14T03:52:38.081Z,5.79
2017-12-14T03:55:07.108Z,5.84
2017-12-14T03:58:48.664Z,5.85
2017-12-14T04:01:18.650Z,5.74
2017-12-14T04:03:47.676Z,5.78
2017-12-14T04:06:16.723Z,5.71
2017-12-14T04:08:49.033Z,5.73
2017-12-14T04:11:21.616Z,5.65
2017-12-14T04:13:52.669Z,5.64
2017-12-14T04:16:21.693Z,5.58
2017-12-14T04:18:51.759Z,5.66
2017-12-14T04:21:20.777Z,5.77
2017-12-14T04:23:58.758Z,5.72
2017-12-14T04:26:27.773Z,5.65
2017-12-14T04:28:56.847Z,5.90
2017-12-14T04:31:25.925Z,5.97
2017-12-14T04:33:54.966Z,6.06
2017-12-14T04:36:24.906Z,6.17
2017-12-14T04:38:59.500Z,6.41
2017-12-14T04:41:29.441Z,6.58
2017-12-14T04:44:06.851Z,6.64
2017-12-14T04:46:36.223Z,6.80
2017-12-14T04:49:05.267Z,7.39
2017-12-14T04:51:35.194Z,7.33
2017-12-14T04:54:12.722Z,7.36
2017-12-14T04:56:41.751Z,7.38
2017-12-14T04:59:12.764Z,7.52
2017-12-14T05:01:41.798Z,7.64
2017-12-14T05:04:10.860Z,7.71
2017-12-14T05:06:39.909Z,7.79
2017-12-14T05:09:08.968Z,7.88
2017-12-14T05:11:38.011Z,7.81
2017-12-14T05:16:44.130Z,7.75
2017-12-14T05:19:13.183Z,7.75
2017-12-14T05:21:44.135Z,7.74
2017-12-14T05:26:50.376Z,7.54
2017-12-14T05:29:21.323Z,7.53
2017-12-14T05:31:51.327Z,7.43
2017-12-14T05:34:20.358Z,7.44
2017-12-14T05:36:49.387Z,7.35
2017-12-14T05:39:18.441Z,7.30
2017-12-14T05:41:48.466Z,7.37
2017-12-14T05:44:17.501Z,7.29
2017-12-14T05:46:47.451Z,7.19
2017-12-14T05:49:21.401Z,7.17
2017-12-14T05:51:54.229Z,7.33
2017-12-14T05:54:23.266Z,7.35
2017-12-14T05:57:01.037Z,7.39
2017-12-14T05:59:30.115Z,7.51
2017-12-14T06:02:03.663Z,7.59
2017-12-14T06:04:32.728Z,7.66
2017-12-14T06:07:09.902Z,7.71
2017-12-14T06:09:38.934Z,7.74
2017-12-14T06:12:08.083Z,7.85
2017-12-14T06:14:37.149Z,7.93
2017-12-14T06:17:06.189Z,7.93
2017-12-14T06:19:35.254Z,7.96
2017-12-14T06:22:06.333Z,7.93
2017-12-14T06:24:35.375Z,6.66
2017-12-14T06:27:04.417Z,3.65
2017-12-14T06:29:33.443Z,2.76
2017-12-14T06:32:21.242Z,2.04
2017-12-14T06:37:32.986Z,1.68
2017-12-14T06:40:10.073Z,1.65
2017-12-14T06:42:39.127Z,1.59
2017-12-14T06:45:08.162Z,1.61
2017-12-14T06:47:37.214Z,1.49
2017-12-14T06:50:06.242Z,1.56
2017-12-14T06:52:35.261Z,1.59
2017-12-14T06:55:04.302Z,1.60
2017-12-14T06:57:33.344Z,1.65
2017-12-14T07:05:23.804Z,1.69
2017-12-14T07:07:56.601Z,1.72
2017-12-14T07:10:25.835Z,1.76
2017-12-14T07:13:21.019Z,1.86
2017-12-14T07:15:55.138Z,1.92
2017-12-14T07:18:24.187Z,1.94
2017-12-14T07:21:07.529Z,1.96
2017-12-14T07:23:37.498Z,2.01
2017-12-14T07:26:06.546Z,2.07
2017-12-14T07:28:35.572Z,2.09
2017-12-14T07:31:05.509Z,2.10
2017-12-14T07:33:37.751Z,2.15
2017-12-14T07:36:06.879Z,2.06
2017-12-14T07:38:35.923Z,2.22
2017-12-14T07:41:04.955Z,2.21
2017-12-14T07:43:59.296Z,2.21
2017-12-14T07:46:34.900Z,2.25
2017-12-14T07:49:21.786Z,2.22
2017-12-14T07:51:52.798Z,2.20
2017-12-14T07:54:25.993Z,2.20
2017-12-14T07:56:55.052Z,2.16
2017-12-14T07:59:25.035Z,2.17
2017-12-14T08:01:54.941Z,2.18
2017-12-14T08:04:35.412Z,2.27
2017-12-14T08:07:04.481Z,2.30
2017-12-14T08:12:12.246Z,2.37
2017-12-14T08:14:43.260Z,2.41
2017-12-14T08:17:12.305Z,2.44
2017-12-14T08:19:42.229Z,2.50
2017-12-14T08:22:11.373Z,2.51
2017-12-14T08:24:54.178Z,2.56
2017-12-14T08:30:07.371Z,2.66
2017-12-14T08:32:36.411Z,2.72
2017-12-14T08:35:05.450Z,2.74
2017-12-14T08:40:12.671Z,2.91
2017-12-14T08:42:54.515Z,2.94
2017-12-14T08:45:23.544Z,3.03
2017-12-14T08:47:54.542Z,3.13
2017-12-14T08:50:23.564Z,3.16
2017-12-14T08:55:54.870Z,3.34
2017-12-14T08:58:23.903Z,3.36
2017-12-14T09:00:52.929Z,3.34
2017-12-14T09:03:25.788Z,3.39
2017-12-14T09:08:33.606Z,3.34
2017-12-14T09:11:02.636Z,3.36
2017-12-14T09:13:32.626Z,3.33
2017-12-14T09:16:07.265Z,3.47
2017-12-14T09:18:37.282Z,3.53
2017-12-14T09:21:06.311Z,4.51
2017-12-14T09:23:42.476Z,6.06
2017-12-14T09:26:11.477Z,7.72
2017-12-14T09:28:52.200Z,7.48
2017-12-14T09:31:24.987Z,7.36
2017-12-14T09:33:54.015Z,7.47
2017-12-14T09:38:58.269Z,7.94
2017-12-14T09:41:30.996Z,7.86
2017-12-14T09:44:00.032Z,7.79
2017-12-14T09:49:05.721Z,7.53
2017-12-14T09:51:39.079Z,6.75
2017-12-14T09:54:09.030Z,6.59
2017-12-14T09:56:55.648Z,5.89
2017-12-14T09:59:35.034Z,5.61
2017-12-14T10:02:04.092Z,5.66
2017-12-14T10:07:08.274Z,5.96
2017-12-14T10:09:42.258Z,5.75
2017-12-14T10:12:11.289Z,5.79
2017-12-14T10:14:53.127Z,5.73
2017-12-14T10:17:22.154Z,5.31
2017-12-14T10:19:52.196Z,5.18
2017-12-14T10:22:25.674Z,5.05
2017-12-14T10:24:54.709Z,6.46
2017-12-14T10:27:23.763Z,7.64
2017-12-14T10:29:52.797Z,8.91
2017-12-14T10:32:52.619Z,9.29
2017-12-14T10:35:21.633Z,8.19
2017-12-14T10:37:50.662Z,8.49
2017-12-14T10:42:54.920Z,7.57
2017-12-14T10:45:23.959Z,7.19
2017-12-14T10:47:53.030Z,7.39
2017-12-14T10:50:25.477Z,7.06
2017-12-14T10:52:54.522Z,7.47
2017-12-14T10:57:58.769Z,7.38
2017-12-14T11:00:34.168Z,7.09
2017-12-14T11:03:03.194Z,6.23
2017-12-14T11:05:32.288Z,6.13
2017-12-14T11:08:01.358Z,6.19
2017-12-14T11:10:31.296Z,6.45
2017-12-14T11:13:00.361Z,6.39
2017-12-14T11:15:29.393Z,7.12
2017-12-14T11:17:58.426Z,7.36
2017-12-14T11:20:27.468Z,7.66
2017-12-14T11:22:56.490Z,7.46
2017-12-14T11:25:26.439Z,7.52
2017-12-14T11:27:55.478Z,7.35
2017-12-14T11:30:24.514Z,6.57
2017-12-14T11:33:14.533Z,5.82
2017-12-14T11:38:18.829Z,5.22
2017-12-14T11:40:51.585Z,4.91
2017-12-14T11:43:21.567Z,4.49
2017-12-14T11:45:59.298Z,4.43
2017-12-14T11:48:28.404Z,4.46
2017-12-14T11:50:58.413Z,4.47
2017-12-14T11:53:28.351Z,4.62
2017-12-14T11:55:58.353Z,5.62
2017-12-14T11:58:27.430Z,6.24
2017-12-14T12:00:56.491Z,6.50
2017-12-14T12:03:26.459Z,6.47
2017-12-14T12:05:55.506Z,6.36
2017-12-14T12:08:24.573Z,6.39
2017-12-14T12:10:53.579Z,6.42
2017-12-14T12:13:22.610Z,6.23
2017-12-14T12:15:51.637Z,6.00
2017-12-14T12:18:20.734Z,6.26
2017-12-14T12:20:49.766Z,6.00
2017-12-14T12:23:19.771Z,5.90
2017-12-14T12:25:48.803Z,6.10
2017-12-14T12:28:17.900Z,5.97
2017-12-14T12:30:46.934Z,5.70
2017-12-14T12:33:25.587Z,5.57
2017-12-14T12:35:54.606Z,5.41
2017-12-14T12:38:24.712Z,5.22
2017-12-14T12:40:53.762Z,5.37
2017-12-14T12:43:31.813Z,5.09
2017-12-14T12:46:00.860Z,5.16
2017-12-14T12:48:43.237Z,5.16
2017-12-14T12:51:17.238Z,4.99
2017-12-14T12:53:46.281Z,4.96
2017-12-14T12:56:29.689Z,4.92
2017-12-14T12:58:58.714Z,4.71
2017-12-14T13:01:28.692Z,4.64
2017-12-14T13:03:57.734Z,4.57
2017-12-14T13:06:36.550Z,4.44
2017-12-14T13:09:11.526Z,4.49
2017-12-14T13:11:41.574Z,4.29
2017-12-14T13:14:35.434Z,4.32
2017-12-14T13:19:44.612Z,4.26
2017-12-14T13:22:21.554Z,4.24
2017-12-14T13:24:51.518Z,4.19
2017-12-14T13:29:55.965Z,4.08
2017-12-14T13:35:01.297Z,4.23
2017-12-14T13:37:31.278Z,4.25
2017-12-14T13:40:00.788Z,4.15
2017-12-14T13:45:05.050Z,4.22
2017-12-14T13:47:34.535Z,4.28
2017-12-14T13:50:10.443Z,4.29
2017-12-14T13:52:40.434Z,4.35
2017-12-14T13:55:10.366Z,4.30
2017-12-14T13:57:43.638Z,4.29
2017-12-14T14:00:13.626Z,4.28
2017-12-14T14:02:42.668Z,4.23
2017-12-14T14:05:11.893Z,4.21
2017-12-14T14:07:44.930Z,4.25
2017-12-14T14:10:13.957Z,4.24
2017-12-14T14:12:47.427Z,4.29
2017-12-14T14:15:16.592Z,4.30
2017-12-14T14:20:20.662Z,4.23
2017-12-14T14:25:24.966Z,4.34
2017-12-14T14:30:36.505Z,4.24
2017-12-14T14:35:48.969Z,4.32
2017-12-14T14:38:18.006Z,4.35
2017-12-14T14:40:47.039Z,4.37
2017-12-14T14:43:16.071Z,4.38
2017-12-14T14:45:49.354Z,4.30
2017-12-14T14:48:18.382Z,4.19
2017-12-14T14:50:47.426Z,4.21
2017-12-14T14:53:16.454Z,4.20
2017-12-14T14:55:48.739Z,4.21
2017-12-14T14:58:17.791Z,4.26
2017-12-14T15:00:46.846Z,4.22
2017-12-14T15:03:15.894Z,4.22
2017-12-14T15:05:48.070Z,4.22
2017-12-14T15:08:17.079Z,4.22
2017-12-14T15:10:53.560Z,4.19
2017-12-14T15:13:23.991Z,4.18
2017-12-14T15:15:55.013Z,4.08
2017-12-14T15:18:24.025Z,4.09
2017-12-14T15:20:59.482Z,4.00
2017-12-14T15:23:31.903Z,4.08
2017-12-14T15:26:00.991Z,4.03
2017-12-14T15:28:33.593Z,4.05
2017-12-14T15:31:06.678Z,4.17
2017-12-14T15:36:10.983Z,4.13
2017-12-14T15:38:59.906Z,4.05
2017-12-14T15:41:33.056Z,4.12
2017-12-14T15:46:48.576Z,4.20
2017-12-14T15:49:17.648Z,4.22
2017-12-14T15:51:46.665Z,4.14
2017-12-14T15:54:17.660Z,4.03
2017-12-14T15:56:46.695Z,4.21
2017-12-14T15:59:15.732Z,4.21
2017-12-14T16:01:45.720Z,4.24
2017-12-14T16:04:14.768Z,4.18
2017-12-14T16:06:46.990Z,4.14
2017-12-14T16:09:16.914Z,4.15
2017-12-14T16:11:55.034Z,4.21
2017-12-14T16:14:28.740Z,4.16
2017-12-14T16:19:36.146Z,4.01
2017-12-14T16:22:05.177Z,3.98
2017-12-14T16:24:41.716Z,4.05
2017-12-14T16:27:10.743Z,4.05
2017-12-14T16:29:39.802Z,4.08
2017-12-14T16:32:08.833Z,4.11
2017-12-14T16:34:37.993Z,4.22
2017-12-14T16:37:09.053Z,4.23
2017-12-14T16:39:40.078Z,4.20
2017-12-14T16:42:09.135Z,4.31
2017-12-14T16:47:13.225Z,4.36
2017-12-14T16:49:47.226Z,4.41
2017-12-14T16:52:16.255Z,4.43
2017-12-14T16:54:47.259Z,4.43
2017-12-14T16:57:16.301Z,4.38
2017-12-14T16:59:53.137Z,4.40
2017-12-14T17:05:08.542Z,4.51
2017-12-14T17:07:41.348Z,4.48
2017-12-14T17:10:10.387Z,4.43
2017-12-14T17:12:39.426Z,4.38
2017-12-14T17:15:08.492Z,4.41
2017-12-14T17:17:50.310Z,4.35
2017-12-14T17:20:19.481Z,4.35
2017-12-14T17:22:48.513Z,4.32
2017-12-14T17:25:18.269Z,4.31
2017-12-14T17:27:52.132Z,4.32
2017-12-14T17:30:21.274Z,4.38
2017-12-14T17:32:50.353Z,4.39
2017-12-14T17:35:19.382Z,4.36
2017-12-14T17:37:48.474Z,4.33
2017-12-14T17:40:17.630Z,4.32
2017-12-14T17:42:59.266Z,4.31
2017-12-14T17:45:32.516Z,4.35
2017-12-14T17:48:01.832Z,4.43
2017-12-14T17:50:34.306Z,4.43
2017-12-14T17:53:04.331Z,4.46
2017-12-14T17:55:33.505Z,4.43
2017-12-14T18:00:39.579Z,4.45
2017-12-14T18:05:51.003Z,4.52
2017-12-14T18:08:20.050Z,4.53
2017-12-14T18:10:53.826Z,4.56
2017-12-14T18:13:22.846Z,4.64
2017-12-14T18:15:52.894Z,4.62
2017-12-14T18:18:27.921Z,4.58
2017-12-14T18:21:04.793Z,4.59
2017-12-14T18:26:09.142Z,4.55
2017-12-14T18:28:38.232Z,4.54
2017-12-14T18:31:07.714Z,4.59
2017-12-14T18:33:37.694Z,4.48
2017-12-14T18:36:06.723Z,4.50
2017-12-14T18:38:35.788Z,4.41
2017-12-14T18:41:04.831Z,4.42
2017-12-14T18:43:33.852Z,4.42
2017-12-14T18:46:02.895Z,4.45
2017-12-14T18:48:32.968Z,4.43
2017-12-14T18:51:02.049Z,4.33
2017-12-14T18:53:31.112Z,4.39
2017-12-14T18:56:04.299Z,4.44
2017-12-14T18:58:34.536Z,4.40
2017-12-14T19:01:04.134Z,4.40
2017-12-14T19:03:36.598Z,4.42
2017-12-14T19:06:07.041Z,4.45
2017-12-14T19:08:37.885Z,4.50
2017-12-14T19:11:09.005Z,4.59
2017-12-14T19:13:45.201Z,4.60
2017-12-14T19:16:15.266Z,4.56
2017-12-14T19:18:47.478Z,4.58
2017-12-14T19:21:16.603Z,4.56
2017-12-14T19:23:45.687Z,4.50
2017-12-14T19:26:14.714Z,4.43
2017-12-14T19:28:46.891Z,4.40
2017-12-14T19:31:21.671Z,4.47
2017-12-14T19:33:52.004Z,4.43
2017-12-14T19:36:21.205Z,4.46
2017-12-14T19:38:50.959Z,4.45
2017-12-14T19:41:29.230Z,4.51
2017-12-14T19:43:59.355Z,4.53
2017-12-14T19:49:03.622Z,4.55
2017-12-14T19:51:36.446Z,4.58
2017-12-14T19:54:05.485Z,4.56
2017-12-14T19:56:36.582Z,4.56
2017-12-14T19:59:05.646Z,4.51
2017-12-14T20:01:35.606Z,4.52
2017-12-14T20:04:11.904Z,4.46
2017-12-14T20:06:40.989Z,4.38
2017-12-14T20:09:10.018Z,4.39
2017-12-14T20:11:39.112Z,4.30
2017-12-14T20:14:09.127Z,4.25
2017-12-14T20:16:39.392Z,4.16
2017-12-14T20:19:16.048Z,4.06
2017-12-14T20:21:46.135Z,4.05
2017-12-14T20:24:15.179Z,3.98
2017-12-14T20:26:47.404Z,3.97
2017-12-14T20:31:51.684Z,4.03
2017-12-14T20:34:24.449Z,4.05
2017-12-14T20:36:53.506Z,4.03
2017-12-14T20:39:22.567Z,4.03
2017-12-14T20:44:34.564Z,4.01
2017-12-14T20:47:03.692Z,3.98
2017-12-14T20:49:36.528Z,3.92
2017-12-14T20:52:05.595Z,3.83
2017-12-14T20:57:13.967Z,3.79
2017-12-14T20:59:42.985Z,3.73
2017-12-14T21:02:19.561Z,3.71
2017-12-14T21:04:48.637Z,3.60
2017-12-14T21:07:21.280Z,3.51
2017-12-14T21:09:51.293Z,3.42
2017-12-14T21:14:48.409Z,3.30
2017-12-14T21:17:18.281Z,3.23
2017-12-14T21:19:47.419Z,3.18
2017-12-14T21:22:30.798Z,3.15
2017-12-14T21:24:59.882Z,3.15
2017-12-14T21:27:50.584Z,3.10
2017-12-14T21:30:29.161Z,3.11
2017-12-14T21:32:58.266Z,3.19
2017-12-14T21:35:28.291Z,3.21
2017-12-14T21:37:57.687Z,3.26
2017-12-14T21:40:32.027Z,3.25
2017-12-14T21:43:01.102Z,3.14
2017-12-14T21:45:34.422Z,3.03
2017-12-14T21:48:03.551Z,2.89
2017-12-14T21:50:34.559Z,2.87
2017-12-14T21:53:03.737Z,2.85
2017-12-14T21:55:40.332Z,2.87
2017-12-14T22:00:54.514Z,2.84
2017-12-14T22:03:27.956Z,2.85
2017-12-14T22:06:02.803Z,2.90
2017-12-14T22:11:11.314Z,2.88
2017-12-14T22:13:40.386Z,2.83
2017-12-14T22:18:44.607Z,2.86
2017-12-14T22:23:51.819Z,2.71
2017-12-14T22:26:21.734Z,2.70
2017-12-14T22:28:50.970Z,2.68
2017-12-14T22:31:28.322Z,2.65
2017-12-14T22:33:57.670Z,2.67
2017-12-14T22:36:38.210Z,2.66
2017-12-14T22:39:12.501Z,2.62
2017-12-14T22:41:41.616Z,2.67
2017-12-14T22:44:14.431Z,2.66
2017-12-14T22:46:43.590Z,2.63
2017-12-14T22:51:58.892Z,2.64
2017-12-14T22:57:18.202Z,2.61
2017-12-14T22:59:47.259Z,2.63
2017-12-14T23:02:16.342Z,2.61
2017-12-14T23:04:45.377Z,2.60
2017-12-14T23:07:14.424Z,2.62
2017-12-14T23:09:43.522Z,2.61
2017-12-14T23:13:14.327Z,2.65
2017-12-14T23:15:50.455Z,2.74
2017-12-14T23:20:57.397Z,2.80
2017-12-14T23:23:26.425Z,2.87
2017-12-14T23:25:55.471Z,2.90
2017-12-14T23:28:24.494Z,2.98
2017-12-14T23:30:53.538Z,3.04
2017-12-14T23:33:25.110Z,3.00
2017-12-14T23:35:54.154Z,3.00
2017-12-14T23:38:23.216Z,3.03
2017-12-14T23:40:52.234Z,3.01
2017-12-14T23:43:36.554Z,3.04
2017-12-14T23:46:05.634Z,3.01
2017-12-14T23:51:36.545Z,3.01
2017-12-14T23:54:08.610Z,2.98
2017-12-14T23:56:37.669Z,3.00
2017-12-14T23:59:06.700Z,3.06
